sensor_id;sensor_type;location;lat;lon;timestamp;P1;durP1;ratioP1;P2;durP2;ratioP2
8098;SDS011;4092;47.876;9.372;2022-09-21T00:00:21;8.27;;;3.07;;
8098;SDS011;4092;47.876;9.372;2022-09-21T00:02:50;4.93;;;1.70;;
8098;SDS011;4092;47.876;9.372;2022-09-21T00:05:17;4.10;;;1.40;;
8098;SDS011;4092;47.876;9.372;2022-09-21T00:07:44;2.80;;;1.60;;
8098;SDS011;4092;47.876;9.372;2022-09-21T00:10:11;2.30;;;1.40;;
8098;SDS011;4092;47.876;9.372;2022-09-21T00:12:38;2.80;;;2.60;;
8098;SDS011;4092;47.876;9.372;2022-09-21T00:15:06;2.83;;;2.10;;
8098;SDS011;4092;47.876;9.372;2022-09-21T00:17:35;4.23;;;2.23;;
8098;SDS011;4092;47.876;9.372;2022-09-21T00:20:05;6.20;;;2.20;;
8098;SDS011;4092;47.876;9.372;2022-09-21T00:22:32;3.53;;;2.10;;
8098;SDS011;4092;47.876;9.372;2022-09-21T00:25:00;3.33;;;2.20;;
8098;SDS011;4092;47.876;9.372;2022-09-21T00:27:27;3.20;;;1.80;;
8098;SDS011;4092;47.876;9.372;2022-09-21T00:29:55;3.90;;;2.20;;
8098;SDS011;4092;47.876;9.372;2022-09-21T00:32:22;2.90;;;2.00;;
8098;SDS011;4092;47.876;9.372;2022-09-21T00:34:50;3.23;;;2.00;;
8098;SDS011;4092;47.876;9.372;2022-09-21T00:37:18;8.77;;;3.17;;
8098;SDS011;4092;47.876;9.372;2022-09-21T00:39:45;5.00;;;2.07;;
8098;SDS011;4092;47.876;9.372;2022-09-21T00:42:13;1.70;;;1.60;;
8098;SDS011;4092;47.876;9.372;2022-09-21T00:44:43;3.23;;;2.20;;
8098;SDS011;4092;47.876;9.372;2022-09-21T00:47:11;2.10;;;1.90;;
8098;SDS011;4092;47.876;9.372;2022-09-21T00:49:40;4.43;;;2.70;;
8098;SDS011;4092;47.876;9.372;2022-09-21T00:52:08;3.53;;;1.80;;
8098;SDS011;4092;47.876;9.372;2022-09-21T00:54:40;3.90;;;2.20;;
8098;SDS011;4092;47.876;9.372;2022-09-21T00:57:10;1.90;;;1.60;;
8098;SDS011;4092;47.876;9.372;2022-09-21T00:59:38;4.43;;;2.40;;
8098;SDS011;4092;47.876;9.372;2022-09-21T01:02:07;3.27;;;1.90;;
8098;SDS011;4092;47.876;9.372;2022-09-21T01:04:34;4.50;;;2.67;;
8098;SDS011;4092;47.876;9.372;2022-09-21T01:07:04;2.23;;;2.03;;
8098;SDS011;4092;47.876;9.372;2022-09-21T01:09:32;12.70;;;2.57;;
8098;SDS011;4092;47.876;9.372;2022-09-21T01:12:08;6.37;;;2.50;;
8098;SDS011;4092;47.876;9.372;2022-09-21T01:14:48;3.83;;;2.37;;
8098;SDS011;4092;47.876;9.372;2022-09-21T01:17:35;2.03;;;1.60;;
8098;SDS011;4092;47.876;9.372;2022-09-21T01:20:23;2.73;;;2.13;;
8098;SDS011;4092;47.876;9.372;2022-09-21T01:23:14;3.80;;;2.00;;
8098;SDS011;4092;47.876;9.372;2022-09-21T01:25:55;5.67;;;4.37;;
8098;SDS011;4092;47.876;9.372;2022-09-21T01:28:37;4.20;;;2.57;;
8098;SDS011;4092;47.876;9.372;2022-09-21T01:31:27;5.20;;;2.33;;
8098;SDS011;4092;47.876;9.372;2022-09-21T01:34:01;5.30;;;2.30;;
8098;SDS011;4092;47.876;9.372;2022-09-21T01:36:33;3.60;;;2.50;;
8098;SDS011;4092;47.876;9.372;2022-09-21T01:39:02;3.90;;;2.20;;
8098;SDS011;4092;47.876;9.372;2022-09-21T01:41:33;6.37;;;3.07;;
8098;SDS011;4092;47.876;9.372;2022-09-21T01:44:05;4.77;;;2.47;;
8098;SDS011;4092;47.876;9.372;2022-09-21T01:46:37;5.13;;;2.90;;
8098;SDS011;4092;47.876;9.372;2022-09-21T01:49:05;5.10;;;3.10;;
8098;SDS011;4092;47.876;9.372;2022-09-21T01:51:36;2.90;;;2.00;;
8098;SDS011;4092;47.876;9.372;2022-09-21T01:54:08;5.83;;;3.30;;
8098;SDS011;4092;47.876;9.372;2022-09-21T01:56:40;4.60;;;3.27;;
8098;SDS011;4092;47.876;9.372;2022-09-21T01:59:15;1.83;;;1.63;;
8098;SDS011;4092;47.876;9.372;2022-09-21T02:01:47;5.20;;;2.63;;
8098;SDS011;4092;47.876;9.372;2022-09-21T02:04:19;3.83;;;2.70;;
8098;SDS011;4092;47.876;9.372;2022-09-21T02:06:46;2.67;;;2.20;;
8098;SDS011;4092;47.876;9.372;2022-09-21T02:09:14;5.20;;;2.47;;
8098;SDS011;4092;47.876;9.372;2022-09-21T02:11:42;4.40;;;3.80;;
8098;SDS011;4092;47.876;9.372;2022-09-21T02:14:10;6.73;;;2.67;;
8098;SDS011;4092;47.876;9.372;2022-09-21T02:16:43;4.57;;;2.70;;
8098;SDS011;4092;47.876;9.372;2022-09-21T02:19:22;8.30;;;3.20;;
8098;SDS011;4092;47.876;9.372;2022-09-21T02:21:55;3.80;;;3.43;;
8098;SDS011;4092;47.876;9.372;2022-09-21T02:24:31;4.30;;;2.90;;
8098;SDS011;4092;47.876;9.372;2022-09-21T02:27:04;4.63;;;2.80;;
8098;SDS011;4092;47.876;9.372;2022-09-21T02:29:39;3.43;;;2.50;;
8098;SDS011;4092;47.876;9.372;2022-09-21T02:32:15;3.23;;;2.40;;
8098;SDS011;4092;47.876;9.372;2022-09-21T02:34:49;4.40;;;2.83;;
8098;SDS011;4092;47.876;9.372;2022-09-21T02:37:25;4.80;;;2.13;;
8098;SDS011;4092;47.876;9.372;2022-09-21T02:40:02;2.90;;;1.90;;
8098;SDS011;4092;47.876;9.372;2022-09-21T02:42:34;3.17;;;1.90;;
8098;SDS011;4092;47.876;9.372;2022-09-21T02:45:08;14.70;;;3.10;;
8098;SDS011;4092;47.876;9.372;2022-09-21T02:47:41;5.87;;;2.20;;
8098;SDS011;4092;47.876;9.372;2022-09-21T02:50:14;4.03;;;2.47;;
8098;SDS011;4092;47.876;9.372;2022-09-21T02:52:45;2.53;;;2.00;;
8098;SDS011;4092;47.876;9.372;2022-09-21T02:55:12;3.60;;;2.47;;
8098;SDS011;4092;47.876;9.372;2022-09-21T02:57:42;7.07;;;3.20;;
8098;SDS011;4092;47.876;9.372;2022-09-21T03:00:13;9.93;;;2.57;;
8098;SDS011;4092;47.876;9.372;2022-09-21T03:02:43;3.30;;;2.17;;
8098;SDS011;4092;47.876;9.372;2022-09-21T03:05:11;3.20;;;2.50;;
8098;SDS011;4092;47.876;9.372;2022-09-21T03:07:40;6.93;;;2.97;;
8098;SDS011;4092;47.876;9.372;2022-09-21T03:10:07;3.60;;;2.90;;
8098;SDS011;4092;47.876;9.372;2022-09-21T03:12:35;3.83;;;2.50;;
8098;SDS011;4092;47.876;9.372;2022-09-21T03:15:02;3.87;;;2.67;;
8098;SDS011;4092;47.876;9.372;2022-09-21T03:17:30;3.40;;;1.87;;
8098;SDS011;4092;47.876;9.372;2022-09-21T03:19:58;3.67;;;2.40;;
8098;SDS011;4092;47.876;9.372;2022-09-21T03:22:26;3.70;;;2.43;;
8098;SDS011;4092;47.876;9.372;2022-09-21T03:24:53;2.73;;;1.90;;
8098;SDS011;4092;47.876;9.372;2022-09-21T03:27:21;2.97;;;2.40;;
8098;SDS011;4092;47.876;9.372;2022-09-21T03:29:49;5.13;;;3.03;;
8098;SDS011;4092;47.876;9.372;2022-09-21T03:32:16;3.43;;;2.37;;
8098;SDS011;4092;47.876;9.372;2022-09-21T03:34:43;2.93;;;2.60;;
8098;SDS011;4092;47.876;9.372;2022-09-21T03:37:12;4.43;;;2.60;;
8098;SDS011;4092;47.876;9.372;2022-09-21T03:39:39;3.20;;;2.70;;
8098;SDS011;4092;47.876;9.372;2022-09-21T03:42:06;5.60;;;2.27;;
8098;SDS011;4092;47.876;9.372;2022-09-21T03:44:34;4.90;;;2.30;;
8098;SDS011;4092;47.876;9.372;2022-09-21T03:47:02;3.00;;;2.23;;
8098;SDS011;4092;47.876;9.372;2022-09-21T03:49:30;4.57;;;4.17;;
8098;SDS011;4092;47.876;9.372;2022-09-21T03:51:58;3.20;;;2.07;;
8098;SDS011;4092;47.876;9.372;2022-09-21T03:54:26;4.07;;;3.20;;
8098;SDS011;4092;47.876;9.372;2022-09-21T03:56:53;8.80;;;3.30;;
8098;SDS011;4092;47.876;9.372;2022-09-21T03:59:20;4.30;;;2.80;;
8098;SDS011;4092;47.876;9.372;2022-09-21T04:01:47;6.90;;;3.50;;
8098;SDS011;4092;47.876;9.372;2022-09-21T04:04:14;3.47;;;2.60;;
8098;SDS011;4092;47.876;9.372;2022-09-21T04:06:41;4.17;;;3.10;;
8098;SDS011;4092;47.876;9.372;2022-09-21T04:09:10;7.63;;;3.40;;
8098;SDS011;4092;47.876;9.372;2022-09-21T04:11:38;6.87;;;4.40;;
8098;SDS011;4092;47.876;9.372;2022-09-21T04:14:06;9.23;;;3.57;;
8098;SDS011;4092;47.876;9.372;2022-09-21T04:16:33;6.37;;;3.63;;
8098;SDS011;4092;47.876;9.372;2022-09-21T04:19:00;10.33;;;4.40;;
8098;SDS011;4092;47.876;9.372;2022-09-21T04:21:27;6.43;;;3.43;;
8098;SDS011;4092;47.876;9.372;2022-09-21T04:23:54;6.53;;;5.20;;
8098;SDS011;4092;47.876;9.372;2022-09-21T04:26:22;5.30;;;3.10;;
8098;SDS011;4092;47.876;9.372;2022-09-21T04:28:52;4.87;;;3.27;;
8098;SDS011;4092;47.876;9.372;2022-09-21T04:31:20;5.70;;;3.10;;
8098;SDS011;4092;47.876;9.372;2022-09-21T04:33:47;6.33;;;3.10;;
8098;SDS011;4092;47.876;9.372;2022-09-21T04:36:15;7.40;;;3.60;;
8098;SDS011;4092;47.876;9.372;2022-09-21T04:38:43;7.30;;;4.97;;
8098;SDS011;4092;47.876;9.372;2022-09-21T04:41:10;5.33;;;3.50;;
8098;SDS011;4092;47.876;9.372;2022-09-21T04:43:37;6.87;;;3.57;;
8098;SDS011;4092;47.876;9.372;2022-09-21T04:46:08;10.53;;;3.87;;
8098;SDS011;4092;47.876;9.372;2022-09-21T04:48:36;8.60;;;4.00;;
8098;SDS011;4092;47.876;9.372;2022-09-21T04:51:04;5.93;;;2.80;;
8098;SDS011;4092;47.876;9.372;2022-09-21T04:53:33;5.13;;;2.67;;
8098;SDS011;4092;47.876;9.372;2022-09-21T04:56:01;5.27;;;2.50;;
8098;SDS011;4092;47.876;9.372;2022-09-21T04:58:29;4.03;;;3.47;;
8098;SDS011;4092;47.876;9.372;2022-09-21T05:00:57;5.30;;;3.57;;
8098;SDS011;4092;47.876;9.372;2022-09-21T05:03:25;4.23;;;2.73;;
8098;SDS011;4092;47.876;9.372;2022-09-21T05:05:53;4.07;;;2.37;;
8098;SDS011;4092;47.876;9.372;2022-09-21T05:08:22;4.87;;;2.13;;
8098;SDS011;4092;47.876;9.372;2022-09-21T05:11:04;4.40;;;2.23;;
8098;SDS011;4092;47.876;9.372;2022-09-21T05:13:31;3.70;;;2.30;;
8098;SDS011;4092;47.876;9.372;2022-09-21T05:15:58;3.10;;;2.30;;
8098;SDS011;4092;47.876;9.372;2022-09-21T05:18:27;4.13;;;2.83;;
8098;SDS011;4092;47.876;9.372;2022-09-21T05:20:54;4.93;;;2.20;;
8098;SDS011;4092;47.876;9.372;2022-09-21T05:23:22;3.73;;;2.43;;
8098;SDS011;4092;47.876;9.372;2022-09-21T05:25:50;4.57;;;2.53;;
8098;SDS011;4092;47.876;9.372;2022-09-21T05:28:18;7.50;;;2.33;;
8098;SDS011;4092;47.876;9.372;2022-09-21T05:30:53;3.47;;;2.20;;
8098;SDS011;4092;47.876;9.372;2022-09-21T05:33:25;5.17;;;2.50;;
8098;SDS011;4092;47.876;9.372;2022-09-21T05:35:58;3.50;;;2.30;;
8098;SDS011;4092;47.876;9.372;2022-09-21T05:38:32;3.87;;;2.60;;
8098;SDS011;4092;47.876;9.372;2022-09-21T05:40:59;7.13;;;3.00;;
8098;SDS011;4092;47.876;9.372;2022-09-21T05:43:28;3.77;;;2.50;;
8098;SDS011;4092;47.876;9.372;2022-09-21T05:45:56;8.23;;;2.70;;
8098;SDS011;4092;47.876;9.372;2022-09-21T05:48:30;4.10;;;2.40;;
8098;SDS011;4092;47.876;9.372;2022-09-21T05:51:03;9.23;;;2.50;;
8098;SDS011;4092;47.876;9.372;2022-09-21T05:53:43;6.57;;;2.97;;
8098;SDS011;4092;47.876;9.372;2022-09-21T05:56:17;3.90;;;3.50;;
8098;SDS011;4092;47.876;9.372;2022-09-21T05:59:08;6.07;;;2.80;;
8098;SDS011;4092;47.876;9.372;2022-09-21T06:02:00;4.17;;;2.40;;
8098;SDS011;4092;47.876;9.372;2022-09-21T06:04:35;3.73;;;2.30;;
8098;SDS011;4092;47.876;9.372;2022-09-21T06:07:02;4.20;;;2.63;;
8098;SDS011;4092;47.876;9.372;2022-09-21T06:09:29;10.47;;;3.30;;
8098;SDS011;4092;47.876;9.372;2022-09-21T06:11:56;5.23;;;2.93;;
8098;SDS011;4092;47.876;9.372;2022-09-21T06:14:23;5.23;;;3.40;;
8098;SDS011;4092;47.876;9.372;2022-09-21T06:16:51;4.10;;;2.47;;
8098;SDS011;4092;47.876;9.372;2022-09-21T06:19:18;5.63;;;2.87;;
8098;SDS011;4092;47.876;9.372;2022-09-21T06:21:47;4.80;;;2.83;;
8098;SDS011;4092;47.876;9.372;2022-09-21T06:24:14;3.70;;;2.00;;
8098;SDS011;4092;47.876;9.372;2022-09-21T06:26:41;4.57;;;2.10;;
8098;SDS011;4092;47.876;9.372;2022-09-21T06:29:08;4.90;;;2.13;;
8098;SDS011;4092;47.876;9.372;2022-09-21T06:31:35;8.73;;;2.60;;
8098;SDS011;4092;47.876;9.372;2022-09-21T06:34:05;2.93;;;2.63;;
8098;SDS011;4092;47.876;9.372;2022-09-21T06:36:32;9.23;;;3.10;;
8098;SDS011;4092;47.876;9.372;2022-09-21T06:39:01;11.53;;;4.33;;
8098;SDS011;4092;47.876;9.372;2022-09-21T06:41:28;6.60;;;2.57;;
8098;SDS011;4092;47.876;9.372;2022-09-21T06:43:55;4.93;;;2.97;;
8098;SDS011;4092;47.876;9.372;2022-09-21T06:46:22;2.77;;;2.33;;
8098;SDS011;4092;47.876;9.372;2022-09-21T06:48:49;4.30;;;2.87;;
8098;SDS011;4092;47.876;9.372;2022-09-21T06:51:16;12.43;;;2.40;;
8098;SDS011;4092;47.876;9.372;2022-09-21T06:53:45;5.50;;;2.23;;
8098;SDS011;4092;47.876;9.372;2022-09-21T06:56:13;5.60;;;3.03;;
8098;SDS011;4092;47.876;9.372;2022-09-21T06:58:40;3.30;;;2.77;;
8098;SDS011;4092;47.876;9.372;2022-09-21T07:01:08;3.80;;;2.40;;
8098;SDS011;4092;47.876;9.372;2022-09-21T07:03:36;5.23;;;3.37;;
8098;SDS011;4092;47.876;9.372;2022-09-21T07:06:04;2.47;;;1.80;;
8098;SDS011;4092;47.876;9.372;2022-09-21T07:08:32;2.87;;;2.13;;
8098;SDS011;4092;47.876;9.372;2022-09-21T07:11:00;4.40;;;2.90;;
8098;SDS011;4092;47.876;9.372;2022-09-21T07:13:29;3.20;;;2.13;;
8098;SDS011;4092;47.876;9.372;2022-09-21T07:15:56;4.93;;;2.40;;
8098;SDS011;4092;47.876;9.372;2022-09-21T07:18:23;2.77;;;1.90;;
8098;SDS011;4092;47.876;9.372;2022-09-21T07:20:50;6.13;;;2.53;;
8098;SDS011;4092;47.876;9.372;2022-09-21T07:23:18;3.80;;;2.47;;
8098;SDS011;4092;47.876;9.372;2022-09-21T07:25:46;1.90;;;1.70;;
8098;SDS011;4092;47.876;9.372;2022-09-21T07:28:16;8.67;;;5.63;;
8098;SDS011;4092;47.876;9.372;2022-09-21T07:30:45;2.67;;;2.00;;
8098;SDS011;4092;47.876;9.372;2022-09-21T07:33:13;7.13;;;2.67;;
8098;SDS011;4092;47.876;9.372;2022-09-21T07:35:48;2.30;;;1.63;;
8098;SDS011;4092;47.876;9.372;2022-09-21T07:38:16;3.23;;;1.80;;
8098;SDS011;4092;47.876;9.372;2022-09-21T07:40:43;5.63;;;2.73;;
8098;SDS011;4092;47.876;9.372;2022-09-21T07:43:10;10.23;;;3.20;;
8098;SDS011;4092;47.876;9.372;2022-09-21T07:45:37;2.47;;;1.80;;
8098;SDS011;4092;47.876;9.372;2022-09-21T07:48:06;3.47;;;2.00;;
8098;SDS011;4092;47.876;9.372;2022-09-21T07:50:34;2.17;;;1.60;;
8098;SDS011;4092;47.876;9.372;2022-09-21T07:53:01;2.60;;;2.07;;
8098;SDS011;4092;47.876;9.372;2022-09-21T07:55:29;4.27;;;2.60;;
8098;SDS011;4092;47.876;9.372;2022-09-21T07:57:57;5.20;;;2.73;;
8098;SDS011;4092;47.876;9.372;2022-09-21T08:00:41;3.10;;;1.73;;
8098;SDS011;4092;47.876;9.372;2022-09-21T08:03:10;4.77;;;2.07;;
8098;SDS011;4092;47.876;9.372;2022-09-21T08:05:37;3.37;;;1.70;;
8098;SDS011;4092;47.876;9.372;2022-09-21T08:08:04;1.87;;;1.60;;
8098;SDS011;4092;47.876;9.372;2022-09-21T08:10:32;3.27;;;1.97;;
8098;SDS011;4092;47.876;9.372;2022-09-21T08:12:59;1.53;;;1.43;;
8098;SDS011;4092;47.876;9.372;2022-09-21T08:15:27;2.47;;;1.83;;
8098;SDS011;4092;47.876;9.372;2022-09-21T08:17:54;2.23;;;1.77;;
8098;SDS011;4092;47.876;9.372;2022-09-21T08:20:23;2.03;;;1.83;;
8098;SDS011;4092;47.876;9.372;2022-09-21T08:22:50;2.13;;;1.77;;
8098;SDS011;4092;47.876;9.372;2022-09-21T08:25:18;1.87;;;1.77;;
8098;SDS011;4092;47.876;9.372;2022-09-21T08:27:45;3.90;;;1.77;;
8098;SDS011;4092;47.876;9.372;2022-09-21T08:30:13;4.00;;;1.37;;
8098;SDS011;4092;47.876;9.372;2022-09-21T08:32:40;2.73;;;1.37;;
8098;SDS011;4092;47.876;9.372;2022-09-21T08:35:07;1.60;;;1.20;;
8098;SDS011;4092;47.876;9.372;2022-09-21T08:37:36;1.80;;;1.60;;
8098;SDS011;4092;47.876;9.372;2022-09-21T08:40:03;15.47;;;1.80;;
8098;SDS011;4092;47.876;9.372;2022-09-21T08:42:36;2.40;;;1.57;;
8098;SDS011;4092;47.876;9.372;2022-09-21T08:45:08;1.60;;;1.37;;
8098;SDS011;4092;47.876;9.372;2022-09-21T08:47:39;2.70;;;1.30;;
8098;SDS011;4092;47.876;9.372;2022-09-21T08:50:14;9.90;;;1.60;;
8098;SDS011;4092;47.876;9.372;2022-09-21T08:52:53;1.53;;;1.37;;
8098;SDS011;4092;47.876;9.372;2022-09-21T08:55:26;2.90;;;1.33;;
8098;SDS011;4092;47.876;9.372;2022-09-21T08:57:53;4.43;;;1.73;;
8098;SDS011;4092;47.876;9.372;2022-09-21T09:00:20;4.17;;;1.87;;
8098;SDS011;4092;47.876;9.372;2022-09-21T09:02:56;4.50;;;1.80;;
8098;SDS011;4092;47.876;9.372;2022-09-21T09:05:53;2.27;;;1.50;;
8098;SDS011;4092;47.876;9.372;2022-09-21T09:11:29;2.90;;;1.37;;
8098;SDS011;4092;47.876;9.372;2022-09-21T09:14:22;6.70;;;1.40;;
8098;SDS011;4092;47.876;9.372;2022-09-21T09:17:15;6.50;;;1.47;;
8098;SDS011;4092;47.876;9.372;2022-09-21T09:19:54;2.67;;;1.30;;
8098;SDS011;4092;47.876;9.372;2022-09-21T09:22:26;1.73;;;1.40;;
8098;SDS011;4092;47.876;9.372;2022-09-21T09:25:00;3.77;;;1.60;;
8098;SDS011;4092;47.876;9.372;2022-09-21T09:27:31;14.50;;;2.07;;
8098;SDS011;4092;47.876;9.372;2022-09-21T09:30:02;1.43;;;1.10;;
8098;SDS011;4092;47.876;9.372;2022-09-21T09:32:33;1.37;;;0.90;;
8098;SDS011;4092;47.876;9.372;2022-09-21T09:35:12;11.67;;;2.00;;
8098;SDS011;4092;47.876;9.372;2022-09-21T09:37:46;5.83;;;1.50;;
8098;SDS011;4092;47.876;9.372;2022-09-21T09:40:14;2.60;;;1.77;;
8098;SDS011;4092;47.876;9.372;2022-09-21T09:42:51;11.57;;;1.00;;
8098;SDS011;4092;47.876;9.372;2022-09-21T09:45:30;3.40;;;1.77;;
8098;SDS011;4092;47.876;9.372;2022-09-21T09:48:14;2.13;;;1.80;;
8098;SDS011;4092;47.876;9.372;2022-09-21T09:50:53;2.23;;;0.90;;
8098;SDS011;4092;47.876;9.372;2022-09-21T09:53:21;8.73;;;1.30;;
8098;SDS011;4092;47.876;9.372;2022-09-21T09:55:50;3.40;;;1.37;;
8098;SDS011;4092;47.876;9.372;2022-09-21T09:58:20;1.60;;;1.30;;
8098;SDS011;4092;47.876;9.372;2022-09-21T10:00:50;1.77;;;1.40;;
8098;SDS011;4092;47.876;9.372;2022-09-21T10:03:19;1.60;;;1.13;;
8098;SDS011;4092;47.876;9.372;2022-09-21T10:05:47;3.00;;;1.73;;
8098;SDS011;4092;47.876;9.372;2022-09-21T10:08:26;1.30;;;1.00;;
8098;SDS011;4092;47.876;9.372;2022-09-21T10:10:54;2.20;;;1.17;;
8098;SDS011;4092;47.876;9.372;2022-09-21T10:13:25;1.20;;;1.10;;
8098;SDS011;4092;47.876;9.372;2022-09-21T10:15:55;3.60;;;1.70;;
8098;SDS011;4092;47.876;9.372;2022-09-21T10:18:25;1.10;;;1.00;;
8098;SDS011;4092;47.876;9.372;2022-09-21T10:20:59;1.43;;;1.13;;
8098;SDS011;4092;47.876;9.372;2022-09-21T10:23:29;1.30;;;1.00;;
8098;SDS011;4092;47.876;9.372;2022-09-21T10:26:01;2.40;;;1.00;;
8098;SDS011;4092;47.876;9.372;2022-09-21T10:28:31;3.83;;;1.83;;
8098;SDS011;4092;47.876;9.372;2022-09-21T10:31:10;1.77;;;1.00;;
8098;SDS011;4092;47.876;9.372;2022-09-21T10:33:45;1.00;;;0.80;;
8098;SDS011;4092;47.876;9.372;2022-09-21T10:36:28;0.97;;;0.60;;
8098;SDS011;4092;47.876;9.372;2022-09-21T10:39:10;4.73;;;1.40;;
8098;SDS011;4092;47.876;9.372;2022-09-21T10:41:49;1.57;;;0.90;;
8098;SDS011;4092;47.876;9.372;2022-09-21T10:44:21;1.80;;;0.83;;
8098;SDS011;4092;47.876;9.372;2022-09-21T10:46:51;1.40;;;0.90;;
8098;SDS011;4092;47.876;9.372;2022-09-21T10:49:20;1.43;;;1.13;;
8098;SDS011;4092;47.876;9.372;2022-09-21T10:51:50;1.23;;;1.10;;
8098;SDS011;4092;47.876;9.372;2022-09-21T10:54:21;1.40;;;1.17;;
8098;SDS011;4092;47.876;9.372;2022-09-21T10:56:52;1.83;;;1.20;;
8098;SDS011;4092;47.876;9.372;2022-09-21T10:59:25;1.97;;;0.90;;
8098;SDS011;4092;47.876;9.372;2022-09-21T11:01:54;1.33;;;1.00;;
8098;SDS011;4092;47.876;9.372;2022-09-21T11:04:30;2.00;;;1.17;;
8098;SDS011;4092;47.876;9.372;2022-09-21T11:07:14;1.10;;;0.97;;
8098;SDS011;4092;47.876;9.372;2022-09-21T11:09:46;1.10;;;0.97;;
8098;SDS011;4092;47.876;9.372;2022-09-21T11:12:28;1.00;;;0.80;;
8098;SDS011;4092;47.876;9.372;2022-09-21T11:15:03;4.33;;;2.33;;
8098;SDS011;4092;47.876;9.372;2022-09-21T11:17:44;1.97;;;1.00;;
8098;SDS011;4092;47.876;9.372;2022-09-21T11:20:18;2.50;;;1.90;;
8098;SDS011;4092;47.876;9.372;2022-09-21T11:22:53;2.73;;;1.10;;
8098;SDS011;4092;47.876;9.372;2022-09-21T11:25:25;3.20;;;0.80;;
8098;SDS011;4092;47.876;9.372;2022-09-21T11:28:03;1.00;;;0.70;;
8098;SDS011;4092;47.876;9.372;2022-09-21T11:30:42;2.37;;;2.00;;
8098;SDS011;4092;47.876;9.372;2022-09-21T11:33:22;1.10;;;0.87;;
8098;SDS011;4092;47.876;9.372;2022-09-21T11:36:05;1.60;;;0.93;;
8098;SDS011;4092;47.876;9.372;2022-09-21T11:38:42;1.30;;;0.70;;
8098;SDS011;4092;47.876;9.372;2022-09-21T11:41:23;1.40;;;1.10;;
8098;SDS011;4092;47.876;9.372;2022-09-21T11:47:01;2.60;;;1.00;;
8098;SDS011;4092;47.876;9.372;2022-09-21T11:49:49;1.10;;;0.80;;
8098;SDS011;4092;47.876;9.372;2022-09-21T11:52:32;4.80;;;1.63;;
8098;SDS011;4092;47.876;9.372;2022-09-21T11:55:17;1.70;;;0.80;;
8098;SDS011;4092;47.876;9.372;2022-09-21T11:58:09;2.50;;;1.00;;
8098;SDS011;4092;47.876;9.372;2022-09-21T12:00:48;1.73;;;1.63;;
8098;SDS011;4092;47.876;9.372;2022-09-21T12:03:33;1.20;;;0.73;;
8098;SDS011;4092;47.876;9.372;2022-09-21T12:06:15;4.50;;;1.13;;
8098;SDS011;4092;47.876;9.372;2022-09-21T12:08:51;1.60;;;0.80;;
8098;SDS011;4092;47.876;9.372;2022-09-21T12:11:28;7.40;;;0.93;;
8098;SDS011;4092;47.876;9.372;2022-09-21T12:14:03;3.90;;;2.10;;
8098;SDS011;4092;47.876;9.372;2022-09-21T12:16:41;1.53;;;0.93;;
8098;SDS011;4092;47.876;9.372;2022-09-21T12:19:16;0.97;;;0.63;;
8098;SDS011;4092;47.876;9.372;2022-09-21T12:21:52;1.63;;;0.70;;
8098;SDS011;4092;47.876;9.372;2022-09-21T12:24:24;1.13;;;0.83;;
8098;SDS011;4092;47.876;9.372;2022-09-21T12:26:56;1.43;;;0.83;;
8098;SDS011;4092;47.876;9.372;2022-09-21T12:29:32;0.97;;;0.63;;
8098;SDS011;4092;47.876;9.372;2022-09-21T12:32:04;1.40;;;0.80;;
8098;SDS011;4092;47.876;9.372;2022-09-21T12:34:41;1.37;;;0.70;;
8098;SDS011;4092;47.876;9.372;2022-09-21T12:37:12;1.50;;;1.17;;
8098;SDS011;4092;47.876;9.372;2022-09-21T12:39:45;1.47;;;0.90;;
8098;SDS011;4092;47.876;9.372;2022-09-21T12:45:06;1.00;;;0.67;;
8098;SDS011;4092;47.876;9.372;2022-09-21T12:47:46;1.00;;;0.60;;
8098;SDS011;4092;47.876;9.372;2022-09-21T12:50:24;1.47;;;0.90;;
8098;SDS011;4092;47.876;9.372;2022-09-21T12:52:54;2.10;;;0.70;;
8098;SDS011;4092;47.876;9.372;2022-09-21T12:55:31;1.30;;;0.60;;
8098;SDS011;4092;47.876;9.372;2022-09-21T12:58:06;2.97;;;0.70;;
8098;SDS011;4092;47.876;9.372;2022-09-21T13:00:39;1.33;;;0.90;;
8098;SDS011;4092;47.876;9.372;2022-09-21T13:03:15;5.33;;;0.80;;
8098;SDS011;4092;47.876;9.372;2022-09-21T13:06:07;1.43;;;1.17;;
8098;SDS011;4092;47.876;9.372;2022-09-21T13:09:01;1.00;;;0.80;;
8098;SDS011;4092;47.876;9.372;2022-09-21T13:11:29;0.90;;;0.60;;
8098;SDS011;4092;47.876;9.372;2022-09-21T13:14:00;1.47;;;0.77;;
8098;SDS011;4092;47.876;9.372;2022-09-21T13:16:30;2.60;;;0.70;;
8098;SDS011;4092;47.876;9.372;2022-09-21T13:19:00;1.30;;;0.67;;
8098;SDS011;4092;47.876;9.372;2022-09-21T13:21:30;0.90;;;0.60;;
8098;SDS011;4092;47.876;9.372;2022-09-21T13:23:58;1.10;;;0.60;;
8098;SDS011;4092;47.876;9.372;2022-09-21T13:26:29;1.37;;;0.70;;
8098;SDS011;4092;47.876;9.372;2022-09-21T13:31:56;1.00;;;0.73;;
8098;SDS011;4092;47.876;9.372;2022-09-21T13:34:29;4.30;;;0.73;;
8098;SDS011;4092;47.876;9.372;2022-09-21T13:37:13;1.77;;;0.70;;
8098;SDS011;4092;47.876;9.372;2022-09-21T13:43:16;2.50;;;0.97;;
8098;SDS011;4092;47.876;9.372;2022-09-21T13:45:57;0.90;;;0.60;;
8098;SDS011;4092;47.876;9.372;2022-09-21T13:48:27;1.80;;;0.90;;
8098;SDS011;4092;47.876;9.372;2022-09-21T13:50:55;2.87;;;0.60;;
8098;SDS011;4092;47.876;9.372;2022-09-21T13:53:26;3.00;;;0.70;;
8098;SDS011;4092;47.876;9.372;2022-09-21T13:55:59;1.30;;;0.83;;
8098;SDS011;4092;47.876;9.372;2022-09-21T13:58:34;1.30;;;1.00;;
8098;SDS011;4092;47.876;9.372;2022-09-21T14:01:11;1.30;;;0.90;;
8098;SDS011;4092;47.876;9.372;2022-09-21T14:03:42;3.10;;;0.80;;
8098;SDS011;4092;47.876;9.372;2022-09-21T14:06:12;1.40;;;0.67;;
8098;SDS011;4092;47.876;9.372;2022-09-21T14:08:46;3.73;;;1.40;;
8098;SDS011;4092;47.876;9.372;2022-09-21T14:11:19;1.30;;;0.80;;
8098;SDS011;4092;47.876;9.372;2022-09-21T14:13:59;0.90;;;0.60;;
8098;SDS011;4092;47.876;9.372;2022-09-21T14:16:52;1.00;;;0.70;;
8098;SDS011;4092;47.876;9.372;2022-09-21T14:22:33;0.90;;;0.50;;
8098;SDS011;4092;47.876;9.372;2022-09-21T14:28:13;1.10;;;0.80;;
8098;SDS011;4092;47.876;9.372;2022-09-21T14:30:47;1.37;;;0.90;;
8098;SDS011;4092;47.876;9.372;2022-09-21T14:33:19;0.90;;;0.60;;
8098;SDS011;4092;47.876;9.372;2022-09-21T14:35:52;1.20;;;0.70;;
8098;SDS011;4092;47.876;9.372;2022-09-21T14:38:22;2.40;;;0.77;;
8098;SDS011;4092;47.876;9.372;2022-09-21T14:40:54;0.97;;;0.60;;
8098;SDS011;4092;47.876;9.372;2022-09-21T14:43:26;2.07;;;1.10;;
8098;SDS011;4092;47.876;9.372;2022-09-21T14:46:10;1.10;;;0.80;;
8098;SDS011;4092;47.876;9.372;2022-09-21T14:48:49;1.20;;;0.70;;
8098;SDS011;4092;47.876;9.372;2022-09-21T14:51:26;3.70;;;0.87;;
8098;SDS011;4092;47.876;9.372;2022-09-21T14:54:06;0.90;;;0.60;;
8098;SDS011;4092;47.876;9.372;2022-09-21T14:59:58;0.90;;;0.60;;
8098;SDS011;4092;47.876;9.372;2022-09-21T15:02:39;1.20;;;0.70;;
8098;SDS011;4092;47.876;9.372;2022-09-21T15:08:09;1.00;;;0.70;;
8098;SDS011;4092;47.876;9.372;2022-09-21T15:11:19;1.03;;;0.70;;
8098;SDS011;4092;47.876;9.372;2022-09-21T15:13:57;1.40;;;0.70;;
8098;SDS011;4092;47.876;9.372;2022-09-21T15:16:40;1.63;;;0.70;;
8098;SDS011;4092;47.876;9.372;2022-09-21T15:19:10;2.10;;;0.73;;
8098;SDS011;4092;47.876;9.372;2022-09-21T15:21:47;2.27;;;1.03;;
8098;SDS011;4092;47.876;9.372;2022-09-21T15:24:17;3.87;;;1.43;;
8098;SDS011;4092;47.876;9.372;2022-09-21T15:26:45;1.37;;;0.73;;
8098;SDS011;4092;47.876;9.372;2022-09-21T15:29:18;1.13;;;0.77;;
8098;SDS011;4092;47.876;9.372;2022-09-21T15:31:51;0.90;;;0.70;;
8098;SDS011;4092;47.876;9.372;2022-09-21T15:34:19;1.30;;;0.80;;
8098;SDS011;4092;47.876;9.372;2022-09-21T15:36:47;2.50;;;0.70;;
8098;SDS011;4092;47.876;9.372;2022-09-21T15:39:24;1.77;;;0.70;;
8098;SDS011;4092;47.876;9.372;2022-09-21T15:41:55;4.70;;;1.00;;
8098;SDS011;4092;47.876;9.372;2022-09-21T15:44:42;2.80;;;0.87;;
8098;SDS011;4092;47.876;9.372;2022-09-21T15:47:14;1.20;;;0.60;;
8098;SDS011;4092;47.876;9.372;2022-09-21T15:49:44;2.03;;;0.83;;
8098;SDS011;4092;47.876;9.372;2022-09-21T15:52:15;2.50;;;1.23;;
8098;SDS011;4092;47.876;9.372;2022-09-21T15:54:50;2.80;;;1.67;;
8098;SDS011;4092;47.876;9.372;2022-09-21T15:57:22;1.40;;;1.00;;
8098;SDS011;4092;47.876;9.372;2022-09-21T15:59:55;7.33;;;0.87;;
8098;SDS011;4092;47.876;9.372;2022-09-21T16:02:24;1.43;;;0.77;;
8098;SDS011;4092;47.876;9.372;2022-09-21T16:04:52;1.00;;;0.70;;
8098;SDS011;4092;47.876;9.372;2022-09-21T16:07:26;2.00;;;1.00;;
8098;SDS011;4092;47.876;9.372;2022-09-21T16:09:56;1.00;;;0.70;;
8098;SDS011;4092;47.876;9.372;2022-09-21T16:12:39;1.13;;;0.70;;